sensor_id;sensor_type;location;lat;lon;timestamp;pressure;altitude;pressure_sealevel;temperature;humidity
17649;BME280;8943;51.110;-4.158;2023-02-04T00:00:38;103288.00;;;14.83;48.47
17649;BME280;8943;51.110;-4.158;2023-02-04T00:03:07;103289.78;;;14.84;48.63
17649;BME280;8943;51.110;-4.158;2023-02-04T00:05:37;103287.13;;;14.83;48.73
17649;BME280;8943;51.110;-4.158;2023-02-04T00:08:05;103282.91;;;14.79;48.73
17649;BME280;8943;51.110;-4.158;2023-02-04T00:10:33;103283.03;;;14.76;49.02
17649;BME280;8943;51.110;-4.158;2023-02-04T00:13:01;103288.41;;;14.76;49.05
17649;BME280;8943;51.110;-4.158;2023-02-04T00:15:30;103284.91;;;14.74;49.21
17649;BME280;8943;51.110;-4.158;2023-02-04T00:17:58;103296.59;;;14.73;49.38
17649;BME280;8943;51.110;-4.158;2023-02-04T00:20:26;103296.78;;;14.70;49.15
17649;BME280;8943;51.110;-4.158;2023-02-04T00:22:56;103293.59;;;14.61;48.92
17649;BME280;8943;51.110;-4.158;2023-02-04T00:25:24;103296.50;;;14.57;48.86
17649;BME280;8943;51.110;-4.158;2023-02-04T00:27:52;103313.63;;;14.54;48.37
17649;BME280;8943;51.110;-4.158;2023-02-04T00:30:20;103297.69;;;14.51;47.97
17649;BME280;8943;51.110;-4.158;2023-02-04T00:32:51;103297.69;;;14.51;47.68
17649;BME280;8943;51.110;-4.158;2023-02-04T00:35:20;103295.94;;;14.50;47.39
17649;BME280;8943;51.110;-4.158;2023-02-04T00:37:49;103289.53;;;14.53;47.33
17649;BME280;8943;51.110;-4.158;2023-02-04T00:40:19;103297.53;;;14.54;47.28
17649;BME280;8943;51.110;-4.158;2023-02-04T00:42:47;103290.28;;;14.56;47.22
17649;BME280;8943;51.110;-4.158;2023-02-04T00:45:15;103282.84;;;14.61;47.04
17649;BME280;8943;51.110;-4.158;2023-02-04T00:47:46;103285.69;;;14.58;47.25
17649;BME280;8943;51.110;-4.158;2023-02-04T00:50:14;103291.88;;;14.60;46.92
17649;BME280;8943;51.110;-4.158;2023-02-04T00:52:42;103285.69;;;14.58;47.07
17649;BME280;8943;51.110;-4.158;2023-02-04T00:55:11;103286.50;;;14.60;47.31
17649;BME280;8943;51.110;-4.158;2023-02-04T00:57:44;103286.50;;;14.60;47.43
17649;BME280;8943;51.110;-4.158;2023-02-04T01:00:14;103293.59;;;14.61;47.42
17649;BME280;8943;51.110;-4.158;2023-02-04T01:02:42;103297.88;;;14.65;47.48
17649;BME280;8943;51.110;-4.158;2023-02-04T01:05:11;103292.50;;;14.65;47.52
17649;BME280;8943;51.110;-4.158;2023-02-04T01:07:39;103289.00;;;14.63;47.67
17649;BME280;8943;51.110;-4.158;2023-02-04T01:10:08;103299.75;;;14.63;47.51
17649;BME280;8943;51.110;-4.158;2023-02-04T01:12:37;103293.59;;;14.61;48.19
17649;BME280;8943;51.110;-4.158;2023-02-04T01:15:08;103297.16;;;14.62;47.99
17649;BME280;8943;51.110;-4.158;2023-02-04T01:17:37;103308.91;;;14.59;48.19
17649;BME280;8943;51.110;-4.158;2023-02-04T01:20:05;103295.63;;;14.56;48.48
17649;BME280;8943;51.110;-4.158;2023-02-04T01:22:33;103300.34;;;14.51;48.68
17649;BME280;8943;51.110;-4.158;2023-02-04T01:25:02;103305.88;;;14.48;48.92
17649;BME280;8943;51.110;-4.158;2023-02-04T01:27:30;103299.53;;;14.49;49.07
17649;BME280;8943;51.110;-4.158;2023-02-04T01:29:58;103304.09;;;14.47;48.91
17649;BME280;8943;51.110;-4.158;2023-02-04T01:32:27;103304.22;;;14.44;48.97
17649;BME280;8943;51.110;-4.158;2023-02-04T01:34:56;103301.78;;;14.39;48.58
17649;BME280;8943;51.110;-4.158;2023-02-04T01:37:24;103306.44;;;14.36;48.18
17649;BME280;8943;51.110;-4.158;2023-02-04T01:39:55;103307.31;;;14.36;48.46
17649;BME280;8943;51.110;-4.158;2023-02-04T01:42:23;103313.69;;;14.34;48.16
17649;BME280;8943;51.110;-4.158;2023-02-04T01:44:51;103322.75;;;14.31;48.39
17649;BME280;8943;51.110;-4.158;2023-02-04T01:47:20;103310.94;;;14.35;48.05
17649;BME280;8943;51.110;-4.158;2023-02-04T01:49:53;103318.91;;;14.37;48.01
17649;BME280;8943;51.110;-4.158;2023-02-04T01:52:21;103320.63;;;14.38;47.71
17649;BME280;8943;51.110;-4.158;2023-02-04T01:54:50;103307.44;;;14.33;47.19
17649;BME280;8943;51.110;-4.158;2023-02-04T01:57:19;103303.03;;;14.32;46.68
17649;BME280;8943;51.110;-4.158;2023-02-04T01:59:48;103310.94;;;14.35;46.90
17649;BME280;8943;51.110;-4.158;2023-02-04T02:02:40;103304.72;;;14.35;47.12
17649;BME280;8943;51.110;-4.158;2023-02-04T02:05:12;103306.44;;;14.36;46.78
17649;BME280;8943;51.110;-4.158;2023-02-04T02:07:41;103302.81;;;14.37;46.84
17649;BME280;8943;51.110;-4.158;2023-02-04T02:10:11;103304.53;;;14.38;46.96
17649;BME280;8943;51.110;-4.158;2023-02-04T02:12:40;103309.59;;;14.44;46.96
17649;BME280;8943;51.110;-4.158;2023-02-04T02:15:10;103306.69;;;14.50;46.86
17649;BME280;8943;51.110;-4.158;2023-02-04T02:17:39;103310.13;;;14.52;46.83
17649;BME280;8943;51.110;-4.158;2023-02-04T02:20:10;103310.06;;;14.54;47.12
17649;BME280;8943;51.110;-4.158;2023-02-04T02:22:48;103307.38;;;14.54;46.70
17649;BME280;8943;51.110;-4.158;2023-02-04T02:25:20;103307.47;;;14.52;46.75
17649;BME280;8943;51.110;-4.158;2023-02-04T02:27:48;103311.00;;;14.53;47.08
17649;BME280;8943;51.110;-4.158;2023-02-04T02:30:16;103308.50;;;14.50;46.94
17649;BME280;8943;51.110;-4.158;2023-02-04T02:32:46;103304.69;;;14.54;46.84
17649;BME280;8943;51.110;-4.158;2023-02-04T02:35:15;103306.28;;;14.58;46.95
17649;BME280;8943;51.110;-4.158;2023-02-04T02:37:43;103308.97;;;14.58;46.87
17649;BME280;8943;51.110;-4.158;2023-02-04T02:40:12;103310.06;;;14.54;46.88
17649;BME280;8943;51.110;-4.158;2023-02-04T02:42:44;103312.81;;;14.52;47.14
17649;BME280;8943;51.110;-4.158;2023-02-04T02:45:20;103310.22;;;14.51;47.17
17649;BME280;8943;51.110;-4.158;2023-02-04T02:47:49;103317.41;;;14.50;47.31
17649;BME280;8943;51.110;-4.158;2023-02-04T02:50:20;103317.47;;;14.49;47.43
17649;BME280;8943;51.110;-4.158;2023-02-04T02:52:50;103316.72;;;14.45;47.41
17649;BME280;8943;51.110;-4.158;2023-02-04T02:55:21;103318.56;;;14.45;47.53
17649;BME280;8943;51.110;-4.158;2023-02-04T02:57:52;103316.00;;;14.41;47.54
17649;BME280;8943;51.110;-4.158;2023-02-04T03:00:23;103308.09;;;14.38;47.24
17649;BME280;8943;51.110;-4.158;2023-02-04T03:02:56;103317.94;;;14.38;47.63
17649;BME280;8943;51.110;-4.158;2023-02-04T03:05:26;103315.28;;;14.38;47.13
17649;BME280;8943;51.110;-4.158;2023-02-04T03:07:56;103316.22;;;14.37;47.15
17649;BME280;8943;51.110;-4.158;2023-02-04T03:10:24;103322.53;;;14.36;46.94
17649;BME280;8943;51.110;-4.158;2023-02-04T03:12:53;103315.34;;;14.36;47.19
17649;BME280;8943;51.110;-4.158;2023-02-04T03:15:22;103323.22;;;14.39;46.93
17649;BME280;8943;51.110;-4.158;2023-02-04T03:17:50;103315.28;;;14.38;46.56
17649;BME280;8943;51.110;-4.158;2023-02-04T03:20:22;103320.63;;;14.38;46.93
17649;BME280;8943;51.110;-4.158;2023-02-04T03:22:51;103330.38;;;14.40;46.78
17649;BME280;8943;51.110;-4.158;2023-02-04T03:25:19;103324.28;;;14.37;46.98
17649;BME280;8943;51.110;-4.158;2023-02-04T03:27:50;103331.28;;;14.39;46.77
17649;BME280;8943;51.110;-4.158;2023-02-04T03:30:21;103333.09;;;14.39;46.55
17649;BME280;8943;51.110;-4.158;2023-02-04T03:32:50;103325.88;;;14.41;46.51
17649;BME280;8943;51.110;-4.158;2023-02-04T03:35:18;103330.19;;;14.43;46.48
17649;BME280;8943;51.110;-4.158;2023-02-04T03:37:46;103324.84;;;14.43;46.17
17649;BME280;8943;51.110;-4.158;2023-02-04T03:40:15;103318.59;;;14.43;46.42
17649;BME280;8943;51.110;-4.158;2023-02-04T03:42:43;103326.47;;;14.48;46.42
17649;BME280;8943;51.110;-4.158;2023-02-04T03:45:11;103326.47;;;14.48;46.39
17649;BME280;8943;51.110;-4.158;2023-02-04T03:47:40;103325.56;;;14.47;46.68
17649;BME280;8943;51.110;-4.158;2023-02-04T03:50:08;103323.91;;;14.45;46.55
17649;BME280;8943;51.110;-4.158;2023-02-04T03:52:39;103309.47;;;14.47;46.73
17649;BME280;8943;51.110;-4.158;2023-02-04T03:55:07;103318.56;;;14.45;46.54
17649;BME280;8943;51.110;-4.158;2023-02-04T03:57:35;103311.38;;;14.45;46.70
17649;BME280;8943;51.110;-4.158;2023-02-04T04:00:04;103311.50;;;14.42;46.92
17649;BME280;8943;51.110;-4.158;2023-02-04T04:02:32;103321.16;;;14.46;46.99
17649;BME280;8943;51.110;-4.158;2023-02-04T04:05:05;103311.59;;;14.40;47.34
17649;BME280;8943;51.110;-4.158;2023-02-04T04:07:33;103313.25;;;14.43;47.17
17649;BME280;8943;51.110;-4.158;2023-02-04T04:10:01;103325.00;;;14.40;47.38
17649;BME280;8943;51.110;-4.158;2023-02-04T04:12:29;103324.28;;;14.37;47.62
17649;BME280;8943;51.110;-4.158;2023-02-04T04:14:57;103315.44;;;14.35;47.61
17649;BME280;8943;51.110;-4.158;2023-02-04T04:17:26;103313.69;;;14.34;47.79
17649;BME280;8943;51.110;-4.158;2023-02-04T04:19:54;103310.22;;;14.32;47.87
17649;BME280;8943;51.110;-4.158;2023-02-04T04:22:23;103319.91;;;14.34;47.92
17649;BME280;8943;51.110;-4.158;2023-02-04T04:24:51;103319.84;;;14.36;48.19
17649;BME280;8943;51.110;-4.158;2023-02-04T04:27:19;103323.50;;;14.35;48.01
17649;BME280;8943;51.110;-4.158;2023-02-04T04:29:47;103322.53;;;14.36;48.05
17649;BME280;8943;51.110;-4.158;2023-02-04T04:32:15;103329.63;;;14.37;48.27
17649;BME280;8943;51.110;-4.158;2023-02-04T04:34:43;103327.72;;;14.39;48.00
17649;BME280;8943;51.110;-4.158;2023-02-04T04:37:11;103318.69;;;14.41;47.99
17649;BME280;8943;51.110;-4.158;2023-02-04T04:39:41;103320.34;;;14.44;47.90
17649;BME280;8943;51.110;-4.158;2023-02-04T04:42:09;103323.84;;;14.46;48.19
17649;BME280;8943;51.110;-4.158;2023-02-04T04:44:38;103314.97;;;14.44;48.19
17649;BME280;8943;51.110;-4.158;2023-02-04T04:47:06;103321.22;;;14.45;48.13
17649;BME280;8943;51.110;-4.158;2023-02-04T04:49:34;103315.72;;;14.48;48.87
17649;BME280;8943;51.110;-4.158;2023-02-04T04:52:03;103317.50;;;14.47;48.57
17649;BME280;8943;51.110;-4.158;2023-02-04T04:54:31;103313.09;;;14.46;48.34
17649;BME280;8943;51.110;-4.158;2023-02-04T04:57:01;103314.84;;;14.47;48.47
17649;BME280;8943;51.110;-4.158;2023-02-04T04:59:29;103317.50;;;14.47;48.64
17649;BME280;8943;51.110;-4.158;2023-02-04T05:01:57;103309.47;;;14.47;48.63
17649;BME280;8943;51.110;-4.158;2023-02-04T05:04:25;103317.41;;;14.50;48.67
17649;BME280;8943;51.110;-4.158;2023-02-04T05:06:53;103317.47;;;14.49;48.71
17649;BME280;8943;51.110;-4.158;2023-02-04T05:09:21;103320.97;;;14.51;48.64
17649;BME280;8943;51.110;-4.158;2023-02-04T05:11:49;103306.72;;;14.49;48.73
17649;BME280;8943;51.110;-4.158;2023-02-04T05:14:18;103299.63;;;14.48;48.64
17649;BME280;8943;51.110;-4.158;2023-02-04T05:16:47;103301.41;;;14.47;48.75
17649;BME280;8943;51.110;-4.158;2023-02-04T05:19:16;103305.88;;;14.48;48.99
17649;BME280;8943;51.110;-4.158;2023-02-04T05:21:44;103307.72;;;14.46;48.85
17649;BME280;8943;51.110;-4.158;2023-02-04T05:24:12;103305.13;;;14.45;48.86
17649;BME280;8943;51.110;-4.158;2023-02-04T05:26:40;103313.09;;;14.46;49.02
17649;BME280;8943;51.110;-4.158;2023-02-04T05:29:08;103308.53;;;14.48;49.06
17649;BME280;8943;51.110;-4.158;2023-02-04T05:31:38;103309.38;;;14.50;49.03
17649;BME280;8943;51.110;-4.158;2023-02-04T05:34:06;103319.94;;;14.53;48.96
17649;BME280;8943;51.110;-4.158;2023-02-04T05:36:34;103315.41;;;14.54;48.94
17649;BME280;8943;51.110;-4.158;2023-02-04T05:39:02;103317.19;;;14.55;49.24
17649;BME280;8943;51.110;-4.158;2023-02-04T05:41:30;103317.09;;;14.56;49.22
17649;BME280;8943;51.110;-4.158;2023-02-04T05:43:58;103317.88;;;14.58;49.01
17649;BME280;8943;51.110;-4.158;2023-02-04T05:46:26;103306.47;;;14.55;48.67
17649;BME280;8943;51.110;-4.158;2023-02-04T05:48:56;103305.72;;;14.51;49.05
17649;BME280;8943;51.110;-4.158;2023-02-04T05:51:24;103312.81;;;14.52;49.08
17649;BME280;8943;51.110;-4.158;2023-02-04T05:53:52;103314.50;;;14.55;48.77
17649;BME280;8943;51.110;-4.158;2023-02-04T05:56:20;103312.59;;;14.57;49.22
17649;BME280;8943;51.110;-4.158;2023-02-04T05:58:48;103315.28;;;14.57;49.02
17649;BME280;8943;51.110;-4.158;2023-02-04T06:01:16;103314.41;;;14.56;49.06
17649;BME280;8943;51.110;-4.158;2023-02-04T06:03:44;103310.78;;;14.57;48.65
17649;BME280;8943;51.110;-4.158;2023-02-04T06:06:14;103314.41;;;14.56;49.25
17649;BME280;8943;51.110;-4.158;2023-02-04T06:08:42;103314.34;;;14.58;49.22
17649;BME280;8943;51.110;-4.158;2023-02-04T06:11:10;103318.75;;;14.59;49.10
17649;BME280;8943;51.110;-4.158;2023-02-04T06:13:38;103320.66;;;14.57;49.38
17649;BME280;8943;51.110;-4.158;2023-02-04T06:16:06;103316.22;;;14.56;49.17
17649;BME280;8943;51.110;-4.158;2023-02-04T06:18:34;103310.00;;;14.55;48.98
17649;BME280;8943;51.110;-4.158;2023-02-04T06:21:02;103311.81;;;14.55;49.03
17649;BME280;8943;51.110;-4.158;2023-02-04T06:23:32;103310.13;;;14.52;48.76
17649;BME280;8943;51.110;-4.158;2023-02-04T06:26:00;103323.56;;;14.52;49.09
17649;BME280;8943;51.110;-4.158;2023-02-04T06:28:29;103325.47;;;14.50;49.13
17649;BME280;8943;51.110;-4.158;2023-02-04T06:30:57;103312.03;;;14.50;49.19
17649;BME280;8943;51.110;-4.158;2023-02-04T06:33:25;103325.47;;;14.50;49.09
17649;BME280;8943;51.110;-4.158;2023-02-04T06:35:53;103323.69;;;14.49;49.16
17649;BME280;8943;51.110;-4.158;2023-02-04T06:38:21;103316.59;;;14.48;49.08
17649;BME280;8943;51.110;-4.158;2023-02-04T06:40:51;103325.50;;;14.49;49.43
17649;BME280;8943;51.110;-4.158;2023-02-04T06:43:19;103326.31;;;14.51;49.02
17649;BME280;8943;51.110;-4.158;2023-02-04T06:45:49;103324.50;;;14.51;49.09
17649;BME280;8943;51.110;-4.158;2023-02-04T06:48:17;103325.38;;;14.52;49.21
17649;BME280;8943;51.110;-4.158;2023-02-04T06:50:45;103323.69;;;14.49;49.15
17649;BME280;8943;51.110;-4.158;2023-02-04T06:53:13;103319.22;;;14.50;49.44
17649;BME280;8943;51.110;-4.158;2023-02-04T06:55:42;103319.13;;;14.51;49.17
17649;BME280;8943;51.110;-4.158;2023-02-04T06:58:11;103330.81;;;14.50;49.53
17649;BME280;8943;51.110;-4.158;2023-02-04T07:00:39;103327.19;;;14.51;49.33
17649;BME280;8943;51.110;-4.158;2023-02-04T07:03:07;103328.91;;;14.52;49.32
17649;BME280;8943;51.110;-4.158;2023-02-04T07:05:35;103336.03;;;14.53;49.49
17649;BME280;8943;51.110;-4.158;2023-02-04T07:08:03;103331.53;;;14.54;49.59
17649;BME280;8943;51.110;-4.158;2023-02-04T07:10:31;103330.59;;;14.55;49.37
17649;BME280;8943;51.110;-4.158;2023-02-04T07:13:00;103331.53;;;14.54;49.46
17649;BME280;8943;51.110;-4.158;2023-02-04T07:15:29;103338.56;;;14.56;49.38
17649;BME280;8943;51.110;-4.158;2023-02-04T07:17:58;103343.94;;;14.56;49.45
17649;BME280;8943;51.110;-4.158;2023-02-04T07:20:26;103339.53;;;14.55;49.59
17649;BME280;8943;51.110;-4.158;2023-02-04T07:22:54;103342.22;;;14.55;49.16
17649;BME280;8943;51.110;-4.158;2023-02-04T07:25:22;103347.56;;;14.55;49.49
17649;BME280;8943;51.110;-4.158;2023-02-04T07:27:50;103346.63;;;14.56;49.52
17649;BME280;8943;51.110;-4.158;2023-02-04T07:30:19;103341.25;;;14.56;49.58
17649;BME280;8943;51.110;-4.158;2023-02-04T07:32:48;103337.69;;;14.56;49.63
17649;BME280;8943;51.110;-4.158;2023-02-04T07:35:16;103341.13;;;14.59;49.74
17649;BME280;8943;51.110;-4.158;2023-02-04T07:37:44;103341.13;;;14.59;49.55
17649;BME280;8943;51.110;-4.158;2023-02-04T07:40:13;103342.75;;;14.62;49.53
17649;BME280;8943;51.110;-4.158;2023-02-04T07:42:41;103339.34;;;14.58;49.45
17649;BME280;8943;51.110;-4.158;2023-02-04T07:45:09;103350.91;;;14.60;49.45
17649;BME280;8943;51.110;-4.158;2023-02-04T07:47:37;103350.09;;;14.58;49.66
17649;BME280;8943;51.110;-4.158;2023-02-04T07:50:08;103350.94;;;14.59;49.43
17649;BME280;8943;51.110;-4.158;2023-02-04T07:52:37;103352.84;;;14.57;49.46
17649;BME280;8943;51.110;-4.158;2023-02-04T07:55:06;103360.81;;;14.58;49.48
17649;BME280;8943;51.110;-4.158;2023-02-04T07:57:35;103365.19;;;14.61;49.26
17649;BME280;8943;51.110;-4.158;2023-02-04T08:00:05;103357.22;;;14.59;49.39
17649;BME280;8943;51.110;-4.158;2023-02-04T08:02:33;103360.69;;;14.61;49.38
17649;BME280;8943;51.110;-4.158;2023-02-04T08:05:01;103357.06;;;14.62;49.52
17649;BME280;8943;51.110;-4.158;2023-02-04T08:07:31;103361.47;;;14.63;49.16
17649;BME280;8943;51.110;-4.158;2023-02-04T08:09:59;103368.59;;;14.64;49.45
17649;BME280;8943;51.110;-4.158;2023-02-04T08:12:27;103373.06;;;14.64;49.20
17649;BME280;8943;51.110;-4.158;2023-02-04T08:14:55;103368.81;;;14.60;49.45
17649;BME280;8943;51.110;-4.158;2023-02-04T08:17:23;103376.00;;;14.59;49.21
17649;BME280;8943;51.110;-4.158;2023-02-04T08:19:51;103379.56;;;14.60;49.38
17649;BME280;8943;51.110;-4.158;2023-02-04T08:22:19;103373.31;;;14.59;49.26
17649;BME280;8943;51.110;-4.158;2023-02-04T08:24:48;103373.31;;;14.59;49.29
17649;BME280;8943;51.110;-4.158;2023-02-04T08:27:16;103376.88;;;14.60;49.35
17649;BME280;8943;51.110;-4.158;2023-02-04T08:29:45;103385.06;;;14.57;49.25
17649;BME280;8943;51.110;-4.158;2023-02-04T08:32:14;103393.03;;;14.58;49.07
17649;BME280;8943;51.110;-4.158;2023-02-04T08:34:42;103392.88;;;14.61;49.29
17649;BME280;8943;51.110;-4.158;2023-02-04T08:37:10;103392.09;;;14.59;49.39
17649;BME280;8943;51.110;-4.158;2023-02-04T08:39:38;103395.56;;;14.61;49.54
17649;BME280;8943;51.110;-4.158;2023-02-04T08:42:13;103394.53;;;14.64;49.46
17649;BME280;8943;51.110;-4.158;2023-02-04T08:44:41;103391.72;;;14.67;49.23
17649;BME280;8943;51.110;-4.158;2023-02-04T08:47:09;103397.81;;;14.71;49.51
17649;BME280;8943;51.110;-4.158;2023-02-04T08:49:37;103401.16;;;14.76;49.50
17649;BME280;8943;51.110;-4.158;2023-02-04T08:52:05;103398.38;;;14.77;49.32
17649;BME280;8943;51.110;-4.158;2023-02-04T08:54:34;103392.00;;;14.80;49.30
17649;BME280;8943;51.110;-4.158;2023-02-04T08:57:02;103399.84;;;14.84;49.30
17649;BME280;8943;51.110;-4.158;2023-02-04T08:59:32;103402.44;;;14.86;49.19
17649;BME280;8943;51.110;-4.158;2023-02-04T09:02:00;103395.34;;;14.85;49.22
17649;BME280;8943;51.110;-4.158;2023-02-04T09:04:29;103396.13;;;14.87;49.06
17649;BME280;8943;51.110;-4.158;2023-02-04T09:06:57;103391.69;;;14.86;49.22
17649;BME280;8943;51.110;-4.158;2023-02-04T09:09:25;103389.78;;;14.88;49.38
17649;BME280;8943;51.110;-4.158;2023-02-04T09:11:53;103391.38;;;14.92;49.15
17649;BME280;8943;51.110;-4.158;2023-02-04T09:14:21;103402.78;;;14.97;49.25
17649;BME280;8943;51.110;-4.158;2023-02-04T09:16:51;103391.16;;;14.97;48.97
17649;BME280;8943;51.110;-4.158;2023-02-04T09:19:19;103391.88;;;15.00;49.19
17649;BME280;8943;51.110;-4.158;2023-02-04T09:21:51;103395.28;;;15.04;49.09
17649;BME280;8943;51.110;-4.158;2023-02-04T09:24:19;103383.44;;;15.08;49.09
17649;BME280;8943;51.110;-4.158;2023-02-04T09:26:49;103379.88;;;15.07;49.15
17649;BME280;8943;51.110;-4.158;2023-02-04T09:29:17;103380.69;;;15.09;48.86
17649;BME280;8943;51.110;-4.158;2023-02-04T09:31:46;103393.06;;;15.12;49.11
17649;BME280;8943;51.110;-4.158;2023-02-04T09:34:16;103395.63;;;15.15;48.87
17649;BME280;8943;51.110;-4.158;2023-02-04T09:36:44;103398.44;;;15.12;48.99
17649;BME280;8943;51.110;-4.158;2023-02-04T09:39:12;103398.63;;;15.09;48.70
17649;BME280;8943;51.110;-4.158;2023-02-04T09:41:40;103402.31;;;15.06;48.91
17649;BME280;8943;51.110;-4.158;2023-02-04T09:44:12;103403.13;;;15.08;48.63
17649;BME280;8943;51.110;-4.158;2023-02-04T09:46:44;103403.34;;;15.04;48.74
17649;BME280;8943;51.110;-4.158;2023-02-04T09:49:15;103406.03;;;15.04;48.87
17649;BME280;8943;51.110;-4.158;2023-02-04T09:51:44;103402.31;;;15.06;48.85
17649;BME280;8943;51.110;-4.158;2023-02-04T09:54:15;103407.69;;;15.06;48.85
17649;BME280;8943;51.110;-4.158;2023-02-04T09:56:45;103400.81;;;15.01;48.72
17649;BME280;8943;51.110;-4.158;2023-02-04T09:59:15;103415.19;;;15.00;48.85
17649;BME280;8943;51.110;-4.158;2023-02-04T10:01:45;103421.56;;;14.97;48.90
17649;BME280;8943;51.110;-4.158;2023-02-04T10:04:21;103414.31;;;14.99;48.81
17649;BME280;8943;51.110;-4.158;2023-02-04T10:06:49;103417.00;;;14.99;49.04
17649;BME280;8943;51.110;-4.158;2023-02-04T10:09:20;103417.66;;;15.04;48.66
17649;BME280;8943;51.110;-4.158;2023-02-04T10:11:48;103421.13;;;15.06;48.64
17649;BME280;8943;51.110;-4.158;2023-02-04T10:14:18;103424.44;;;15.11;48.77
17649;BME280;8943;51.110;-4.158;2023-02-04T10:16:52;103424.94;;;15.19;48.80
17649;BME280;8943;51.110;-4.158;2023-02-04T10:19:26;103432.69;;;15.26;48.91
17649;BME280;8943;51.110;-4.158;2023-02-04T10:21:55;103424.31;;;15.32;48.84
17649;BME280;8943;51.110;-4.158;2023-02-04T10:24:25;103438.31;;;15.38;48.70
17649;BME280;8943;51.110;-4.158;2023-02-04T10:27:06;103437.13;;;15.44;48.52
17649;BME280;8943;51.110;-4.158;2023-02-04T10:29:35;103442.19;;;15.50;48.54
17649;BME280;8943;51.110;-4.158;2023-02-04T10:32:04;103444.75;;;15.53;48.62
17649;BME280;8943;51.110;-4.158;2023-02-04T10:34:34;103456.13;;;15.58;48.35
17649;BME280;8943;51.110;-4.158;2023-02-04T10:37:13;103455.88;;;15.63;48.46
17649;BME280;8943;51.110;-4.158;2023-02-04T10:39:45;103458.28;;;15.69;48.57
17649;BME280;8943;51.110;-4.158;2023-02-04T10:42:19;103461.75;;;15.71;48.48
17649;BME280;8943;51.110;-4.158;2023-02-04T10:44:48;103464.06;;;15.79;48.54
17649;BME280;8943;51.110;-4.158;2023-02-04T10:47:18;103471.03;;;15.83;48.39
17649;BME280;8943;51.110;-4.158;2023-02-04T10:49:53;103464.78;;;15.82;48.58
17649;BME280;8943;51.110;-4.158;2023-02-04T10:52:25;103472.59;;;15.87;48.18
17649;BME280;8943;51.110;-4.158;2023-02-04T10:54:57;103476.16;;;15.87;48.12
17649;BME280;8943;51.110;-4.158;2023-02-04T10:57:27;103482.31;;;15.89;48.02
17649;BME280;8943;51.110;-4.158;2023-02-04T10:59:57;103471.31;;;15.94;48.04
17649;BME280;8943;51.110;-4.158;2023-02-04T11:02:39;103475.94;;;15.92;47.94
17649;BME280;8943;51.110;-4.158;2023-02-04T11:05:13;103467.84;;;15.92;48.01
17649;BME280;8943;51.110;-4.158;2023-02-04T11:07:43;103468.47;;;15.97;47.94
17649;BME280;8943;51.110;-4.158;2023-02-04T11:10:13;103472.75;;;16.01;47.78
17649;BME280;8943;51.110;-4.158;2023-02-04T11:12:43;103479.78;;;16.04;47.84
17649;BME280;8943;51.110;-4.158;2023-02-04T11:18:28;103476.75;;;16.10;47.88
17649;BME280;8943;51.110;-4.158;2023-02-04T11:21:00;103473.19;;;16.09;47.85
17649;BME280;8943;51.110;-4.158;2023-02-04T11:23:32;103470.44;;;16.11;47.72
17649;BME280;8943;51.110;-4.158;2023-02-04T11:26:07;103471.31;;;16.11;47.65
17649;BME280;8943;51.110;-4.158;2023-02-04T11:29:06;103466.94;;;16.09;47.46
17649;BME280;8943;51.110;-4.158;2023-02-04T11:31:42;103465.38;;;16.05;47.66
17649;BME280;8943;51.110;-4.158;2023-02-04T11:34:24;103458.44;;;16.01;47.45
17649;BME280;8943;51.110;-4.158;2023-02-04T11:37:12;103459.47;;;15.98;47.25
17649;BME280;8943;51.110;-4.158;2023-02-04T11:39:42;103454.41;;;15.92;47.27
17649;BME280;8943;51.110;-4.158;2023-02-04T11:42:20;103460.75;;;15.91;47.60
17649;BME280;8943;51.110;-4.158;2023-02-04T11:44:50;103457.16;;;15.90;47.49
17649;BME280;8943;51.110;-4.158;2023-02-04T11:47:21;103458.19;;;15.88;47.09
17649;BME280;8943;51.110;-4.158;2023-02-04T11:49:57;103448.56;;;15.84;47.61
17649;BME280;8943;51.110;-4.158;2023-02-04T11:52:28;103445.88;;;15.84;47.75
17649;BME280;8943;51.110;-4.158;2023-02-04T11:54:57;103445.78;;;15.85;47.29
17649;BME280;8943;51.110;-4.158;2023-02-04T11:57:26;103445.09;;;15.82;47.71
17649;BME280;8943;51.110;-4.158;2023-02-04T11:59:55;103445.31;;;15.77;47.19
17649;BME280;8943;51.110;-4.158;2023-02-04T12:02:23;103451.91;;;15.72;47.85
17649;BME280;8943;51.110;-4.158;2023-02-04T12:04:54;103457.56;;;15.65;47.29
17649;BME280;8943;51.110;-4.158;2023-02-04T12:07:25;103455.16;;;15.59;47.31
17649;BME280;8943;51.110;-4.158;2023-02-04T12:10:10;103444.56;;;15.56;47.25
17649;BME280;8943;51.110;-4.158;2023-02-04T12:12:55;103452.63;;;15.56;47.26
17649;BME280;8943;51.110;-4.158;2023-02-04T12:15:38;103456.25;;;15.55;47.29
17649;BME280;8943;51.110;-4.158;2023-02-04T12:18:09;103465.50;;;15.50;47.23
17649;BME280;8943;51.110;-4.158;2023-02-04T12:20:38;103460.91;;;15.52;47.13
17649;BME280;8943;51.110;-4.158;2023-02-04T12:23:06;103460.00;;;15.53;47.10
17649;BME280;8943;51.110;-4.158;2023-02-04T12:25:36;103465.44;;;15.51;47.00
17649;BME280;8943;51.110;-4.158;2023-02-04T12:28:04;103472.72;;;15.49;46.82
17649;BME280;8943;51.110;-4.158;2023-02-04T12:30:32;103472.84;;;15.46;46.85
17649;BME280;8943;51.110;-4.158;2023-02-04T12:33:00;103472.84;;;15.46;46.72
17649;BME280;8943;51.110;-4.158;2023-02-04T12:35:28;103465.75;;;15.45;46.88
17649;BME280;8943;51.110;-4.158;2023-02-04T12:37:57;103461.41;;;15.42;46.72
17649;BME280;8943;51.110;-4.158;2023-02-04T12:40:25;103454.84;;;15.48;46.78
17649;BME280;8943;51.110;-4.158;2023-02-04T12:42:55;103467.47;;;15.46;46.66
17649;BME280;8943;51.110;-4.158;2023-02-04T12:45:24;103472.94;;;15.44;46.81
17649;BME280;8943;51.110;-4.158;2023-02-04T12:47:52;103465.59;;;15.48;46.75
17649;BME280;8943;51.110;-4.158;2023-02-04T12:50:20;103458.41;;;15.49;46.77
17649;BME280;8943;51.110;-4.158;2023-02-04T12:52:49;103455.63;;;15.50;46.63
17649;BME280;8943;51.110;-4.158;2023-02-04T12:55:18;103450.16;;;15.52;46.71
17649;BME280;8943;51.110;-4.158;2023-02-04T12:57:47;103442.28;;;15.49;46.75
17649;BME280;8943;51.110;-4.158;2023-02-04T13:00:19;103452.81;;;15.53;46.73
17649;BME280;8943;51.110;-4.158;2023-02-04T13:02:47;103454.38;;;15.57;46.73
17649;BME280;8943;51.110;-4.158;2023-02-04T13:05:16;103452.63;;;15.56;46.96